Time;durP1;ratioP1;P1;durP2;ratioP2;P2;SDS_P1;SDS_P2;PMS_P1;PMS_P2;Temp;Humidity;BMP_temperature;BMP_pressure;BME280_temperature;BME280_humidity;BME280_pressure;Samples;Min_cycle;Max_cycle;Signal;HPM_P1;HPM_P2
2023/04/02 00:01:18;;;;;;;12.43;5.47;;;4.30;99.90;;;;;;5064596;28;20040;-65
2023/04/02 00:03:44;;;;;;;11.50;7.13;;;4.30;99.90;;;;;;5062472;28;20354;-65
2023/04/02 00:06:32;;;;;;;14.45;6.97;;;4.30;99.90;;;;;;5062695;28;20051;-65
2023/04/02 00:09:16;;;;;;;10.43;6.50;;;4.30;99.90;;;;;;5063193;28;20028;-65
2023/04/02 00:11:53;;;;;;;9.20;6.63;;;4.30;99.90;;;;;;5061260;28;20044;-65
2023/04/02 00:14:24;;;;;;;14.77;7.13;;;4.30;99.90;;;;;;5062377;28;20028;-65
2023/04/02 00:16:52;;;;;;;12.30;7.63;;;4.30;99.90;;;;;;5063952;28;20726;-65
2023/04/02 00:19:29;;;;;;;9.50;7.03;;;4.30;99.90;;;;;;5060611;28;20051;-65
2023/04/02 00:21:56;;;;;;;9.20;6.28;;;4.20;99.90;;;;;;5061436;28;20110;-65
2023/04/02 00:24:22;;;;;;;8.75;5.75;;;4.20;99.90;;;;;;5063735;28;20123;-65
2023/04/02 00:26:51;;;;;;;9.43;7.05;;;4.20;99.90;;;;;;5062094;28;20047;-65
2023/04/02 00:29:17;;;;;;;8.60;6.05;;;4.10;99.90;;;;;;5065177;28;20058;-65
2023/04/02 00:31:57;;;;;;;10.88;6.57;;;4.10;99.90;;;;;;5063331;28;20141;-65
2023/04/02 00:34:30;;;;;;;9.90;6.63;;;4.10;99.90;;;;;;5062222;28;20036;-65
2023/04/02 00:36:56;;;;;;;9.50;6.22;;;4.10;99.90;;;;;;5059075;28;20047;-65
2023/04/02 00:39:28;;;;;;;10.93;6.70;;;4.00;99.90;;;;;;5056006;28;20600;-65
2023/04/02 00:42:03;;;;;;;9.45;6.28;;;4.40;99.90;;;;;;5063523;28;20525;-65
2023/04/02 00:44:31;;;;;;;10.32;7.10;;;4.00;99.90;;;;;;5073978;28;20497;-65
2023/04/02 00:47:03;;;;;;;9.25;6.97;;;3.90;99.90;;;;;;5064006;28;20049;-65
2023/04/02 00:49:35;;;;;;;7.72;5.88;;;4.00;99.90;;;;;;5073692;28;20036;-65
2023/04/02 00:52:29;;;;;;;9.70;6.18;;;3.80;99.90;;;;;;5062400;28;20268;-65
2023/04/02 00:54:59;;;;;;;10.20;6.40;;;3.80;99.90;;;;;;5057156;28;20103;-65
2023/04/02 00:57:27;;;;;;;9.35;6.30;;;3.80;99.90;;;;;;5061679;28;20079;-65
2023/04/02 00:59:58;;;;;;;8.65;6.13;;;3.80;99.90;;;;;;5061628;28;20040;-65
2023/04/02 01:02:26;;;;;;;8.73;6.43;;;3.80;99.90;;;;;;5055652;28;20131;-65
2023/04/02 01:05:24;;;;;;;9.73;6.53;;;3.70;99.90;;;;;;5063890;28;20076;-65
2023/04/02 01:08:15;;;;;;;11.05;6.03;;;3.70;99.90;;;;;;5071791;28;20540;-65
2023/04/02 01:11:14;;;;;;;6.82;4.55;;;3.70;99.90;;;;;;5061420;28;20047;-65
2023/04/02 01:14:08;;;;;;;9.65;4.80;;;3.60;99.90;;;;;;5083700;28;20041;-65
2023/04/02 01:17:02;;;;;;;9.32;5.05;;;3.50;99.90;;;;;;5066329;28;20054;-65
2023/04/02 01:19:49;;;;;;;8.25;4.70;;;3.40;99.90;;;;;;5067687;28;20040;-65
2023/04/02 01:22:18;;;;;;;11.27;5.18;;;3.40;99.90;;;;;;5065471;28;20037;-65
2023/04/02 01:24:44;;;;;;;9.40;5.20;;;3.40;99.90;;;;;;5067193;28;20501;-65
2023/04/02 01:27:12;;;;;;;7.80;5.00;;;3.30;99.90;;;;;;5064740;28;20033;-65
2023/04/02 01:29:44;;;;;;;8.55;5.22;;;3.30;99.90;;;;;;5067587;28;20043;-65
2023/04/02 01:32:13;;;;;;;8.90;4.30;;;3.40;99.90;;;;;;5066379;28;20120;-65
2023/04/02 01:34:40;;;;;;;5.97;3.60;;;3.20;99.90;;;;;;5055943;28;20033;-65
2023/04/02 01:37:05;;;;;;;7.53;4.03;;;3.10;99.90;;;;;;5066440;28;20069;-65
2023/04/02 01:40:00;;;;;;;7.15;4.00;;;3.10;99.90;;;;;;5062745;28;20045;-65
2023/04/02 01:42:48;;;;;;;7.57;3.60;;;3.00;99.90;;;;;;5063811;28;20357;-64
2023/04/02 01:45:20;;;;;;;7.32;3.40;;;2.90;99.90;;;;;;5066564;28;20043;-65
2023/04/02 01:47:47;;;;;;;8.25;3.65;;;3.10;99.90;;;;;;5044724;28;20044;-65
2023/04/02 01:50:19;;;;;;;6.35;3.83;;;2.80;99.90;;;;;;5059022;28;20485;-65
2023/04/02 01:52:51;;;;;;;7.20;3.45;;;2.80;99.90;;;;;;5067409;28;20033;-65
2023/04/02 01:55:28;;;;;;;8.00;3.42;;;2.70;99.90;;;;;;5065316;28;20142;-65
2023/04/02 01:57:54;;;;;;;7.85;2.85;;;2.70;99.90;;;;;;5064210;28;20478;-65
2023/04/02 02:00:21;;;;;;;6.18;2.65;;;2.60;99.90;;;;;;5063375;28;20136;-65
2023/04/02 02:02:49;;;;;;;5.03;2.80;;;2.60;99.90;;;;;;5067645;28;20036;-65
2023/04/02 02:05:18;;;;;;;5.50;2.60;;;2.50;99.90;;;;;;5068225;28;20506;-65
2023/04/02 02:07:44;;;;;;;5.40;3.40;;;2.50;99.90;;;;;;5059895;28;20127;-65
2023/04/02 02:10:15;;;;;;;7.20;3.05;;;2.40;99.90;;;;;;5062787;28;20051;-64
2023/04/02 02:12:43;;;;;;;5.18;3.00;;;2.40;99.90;;;;;;5067497;28;20076;-64
2023/04/02 02:15:18;;;;;;;7.43;2.70;;;2.30;99.90;;;;;;5074483;28;20106;-65
2023/04/02 02:17:43;;;;;;;5.18;2.70;;;2.20;99.90;;;;;;5066686;28;20540;-65
2023/04/02 02:20:11;;;;;;;3.47;2.30;;;2.10;99.90;;;;;;5061216;28;20131;-64
2023/04/02 02:22:42;;;;;;;6.10;2.58;;;2.00;99.90;;;;;;5062881;28;20047;-65
2023/04/02 02:25:15;;;;;;;4.95;2.38;;;2.00;99.90;;;;;;5073065;28;20041;-65
2023/04/02 02:27:45;;;;;;;6.75;2.80;;;1.90;99.90;;;;;;5061920;28;20059;-64
2023/04/02 02:30:20;;;;;;;8.75;3.17;;;1.80;99.90;;;;;;5064985;28;20060;-64
2023/04/02 02:33:13;;;;;;;8.02;3.40;;;1.80;99.90;;;;;;5064311;28;20051;-65
2023/04/02 02:35:53;;;;;;;4.55;3.28;;;1.70;99.90;;;;;;5066202;28;20040;-65
2023/04/02 02:38:25;;;;;;;7.13;3.10;;;1.60;99.90;;;;;;5063866;28;20043;-65
2023/04/02 02:40:55;;;;;;;5.97;3.63;;;1.60;99.90;;;;;;5062393;28;20033;-65
2023/04/02 02:43:23;;;;;;;8.32;3.25;;;1.60;99.90;;;;;;5065839;28;20494;-65
2023/04/02 02:45:52;;;;;;;7.18;3.10;;;1.60;99.90;;;;;;5064154;28;20040;-65
2023/04/02 02:48:22;;;;;;;7.22;3.25;;;1.60;99.90;;;;;;5048549;28;20047;-65
2023/04/02 02:50:49;;;;;;;8.95;3.20;;;1.50;99.90;;;;;;5062045;28;20101;-65
2023/04/02 02:53:21;;;;;;;6.22;3.25;;;1.40;99.90;;;;;;5046928;28;20080;-65
2023/04/02 02:55:54;;;;;;;8.48;3.70;;;1.40;99.90;;;;;;5060944;28;20044;-65
2023/04/02 02:58:25;;;;;;;;;;;1.40;99.90;;;;;;5062233;28;20040;-65
2023/04/02 03:00:51;;;;;;;9.90;3.80;;;1.40;99.90;;;;;;5064776;28;20366;-65
2023/04/02 03:03:21;;;;;;;5.70;3.33;;;1.30;99.90;;;;;;5064306;28;20115;-64
2023/04/02 03:06:01;;;;;;;6.25;3.85;;;1.30;99.90;;;;;;5062234;28;20415;-65
2023/04/02 03:08:39;;;;;;;7.30;3.63;;;1.40;99.90;;;;;;5058699;28;20044;-64
2023/04/02 03:11:23;;;;;;;9.98;4.57;;;1.30;99.90;;;;;;5060677;28;20414;-64
2023/04/02 03:13:53;;;;;;;4.88;3.40;;;1.30;99.90;;;;;;5062908;28;20051;-65
2023/04/02 03:16:37;;;;;;;6.53;3.35;;;1.30;99.90;;;;;;5062257;28;20024;-65
2023/04/02 03:19:21;;;;;;;9.15;4.10;;;1.30;99.90;;;;;;5063685;28;20046;-65
2023/04/02 03:22:07;;;;;;;6.25;3.92;;;1.30;99.90;;;;;;5063177;28;20185;-65
2023/04/02 03:24:44;;;;;;;5.93;3.78;;;1.30;99.90;;;;;;5065798;28;20044;-65
2023/04/02 03:27:24;;;;;;;8.63;3.97;;;1.30;99.90;;;;;;5059086;28;20123;-64
2023/04/02 03:29:56;;;;;;;5.20;3.80;;;1.70;99.90;;;;;;5063478;28;20505;-65
2023/04/02 03:32:31;;;;;;;10.13;4.20;;;1.40;99.90;;;;;;5062402;28;20045;-65
2023/04/02 03:35:09;;;;;;;7.60;4.10;;;1.40;99.90;;;;;;5061840;28;20036;-64
2023/04/02 03:37:52;;;;;;;9.23;3.92;;;1.40;99.90;;;;;;5061292;28;20049;-65
2023/04/02 03:40:43;;;;;;;7.68;5.10;;;1.40;99.90;;;;;;5065405;28;20067;-64
2023/04/02 03:43:24;;;;;;;9.68;4.18;;;1.40;99.90;;;;;;5064915;28;20364;-65
2023/04/02 03:46:23;;;;;;;5.60;4.30;;;1.40;99.90;;;;;;5064247;28;20569;-65
2023/04/02 03:48:57;;;;;;;7.60;5.00;;;1.40;99.90;;;;;;5059743;28;20130;-65
2023/04/02 03:51:32;;;;;;;6.70;3.97;;;1.80;99.90;;;;;;5056138;28;20052;-65
2023/04/02 03:53:58;;;;;;;9.43;4.57;;;1.40;99.90;;;;;;5063843;28;20036;-65
2023/04/02 03:56:38;;;;;;;8.20;5.07;;;1.40;99.90;;;;;;5057224;28;20041;-64
2023/04/02 03:59:20;;;;;;;9.05;5.25;;;1.40;99.90;;;;;;5064220;28;20497;-65
2023/04/02 04:01:58;;;;;;;10.30;4.25;;;1.40;99.90;;;;;;5060173;28;20456;-65
2023/04/02 04:04:27;;;;;;;7.35;4.32;;;1.40;99.90;;;;;;5061777;28;20121;-64
2023/04/02 04:06:56;;;;;;;5.78;4.03;;;1.40;99.90;;;;;;5061727;28;20378;-65
2023/04/02 04:09:32;;;;;;;5.50;3.60;;;1.40;99.90;;;;;;5061986;28;20429;-65
2023/04/02 04:12:08;;;;;;;5.20;3.17;;;1.40;99.90;;;;;;5062704;28;20036;-65
2023/04/02 04:14:41;;;;;;;6.28;3.80;;;1.40;99.90;;;;;;5076530;28;20110;-64
2023/04/02 04:17:08;;;;;;;5.35;3.42;;;1.40;99.90;;;;;;5058756;28;20037;-65
2023/04/02 04:19:48;;;;;;;9.40;4.20;;;1.30;99.90;;;;;;5064856;28;20501;-65
2023/04/02 04:22:18;;;;;;;7.57;3.92;;;1.30;99.90;;;;;;5062732;28;20500;-65
2023/04/02 04:24:45;;;;;;;8.13;3.75;;;1.30;99.90;;;;;;5061698;28;20048;-64
2023/04/02 04:27:32;;;;;;;10.55;3.80;;;1.30;99.90;;;;;;5043867;28;20398;-64
2023/04/02 04:30:04;;;;;;;8.75;3.85;;;1.30;99.90;;;;;;5063508;28;20064;-64
2023/04/02 04:32:33;;;;;;;10.75;4.50;;;1.30;99.90;;;;;;5045337;28;20145;-65
2023/04/02 04:35:20;;;;;;;8.68;4.05;;;1.20;99.90;;;;;;5059816;28;20496;-64
2023/04/02 04:37:48;;;;;;;9.40;4.20;;;1.30;99.90;;;;;;5063486;28;20398;-65
2023/04/02 04:40:31;;;;;;;7.45;3.42;;;1.30;99.90;;;;;;5062693;28;20040;-65
2023/04/02 04:43:06;;;;;;;9.98;5.03;;;1.20;99.90;;;;;;5064709;28;20056;-64
2023/04/02 04:46:03;;;;;;;7.93;4.95;;;1.20;99.90;;;;;;5064270;28;20048;-64
2023/04/02 04:48:40;;;;;;;9.52;3.90;;;1.20;99.90;;;;;;5060023;28;20036;-65
2023/04/02 04:51:15;;;;;;;5.65;3.72;;;1.10;99.90;;;;;;5064086;28;20032;-64
2023/04/02 04:53:47;;;;;;;8.45;3.95;;;1.10;99.90;;;;;;5062207;28;20036;-64
2023/04/02 04:56:21;;;;;;;9.43;4.35;;;1.10;99.90;;;;;;5060218;28;20050;-64
2023/04/02 04:59:06;;;;;;;5.88;4.00;;;1.10;99.90;;;;;;5062145;28;20117;-65
2023/04/02 05:01:46;;;;;;;5.70;3.97;;;1.10;99.90;;;;;;5061147;28;20593;-64
2023/04/02 05:04:36;;;;;;;7.57;4.10;;;1.00;99.90;;;;;;5070356;28;20037;-64
2023/04/02 05:07:31;;;;;;;7.30;4.75;;;1.00;99.90;;;;;;5061122;28;20545;-64
2023/04/02 05:10:16;;;;;;;7.72;5.10;;;0.90;99.90;;;;;;5065682;28;20044;-64
2023/04/02 05:12:58;;;;;;;7.70;4.57;;;0.90;99.90;;;;;;5063105;28;20844;-65
2023/04/02 05:15:34;;;;;;;9.07;4.05;;;0.90;99.90;;;;;;5062363;28;20041;-64
2023/04/02 05:18:20;;;;;;;9.05;3.85;;;0.80;99.90;;;;;;5058572;28;20044;-64
2023/04/02 05:20:51;;;;;;;7.03;4.00;;;1.10;99.90;;;;;;5059852;28;20135;-64
2023/04/02 05:23:26;;;;;;;9.32;4.32;;;0.80;99.90;;;;;;5056993;28;20037;-64
2023/04/02 05:25:54;;;;;;;8.57;3.65;;;0.90;99.90;;;;;;5063495;28;20044;-64
2023/04/02 05:28:32;;;;;;;8.30;3.20;;;0.90;99.90;;;;;;5064601;28;20068;-64
2023/04/02 05:31:16;;;;;;;5.50;3.47;;;1.00;99.90;;;;;;5074038;28;20048;-64
2023/04/02 05:33:46;;;;;;;9.93;4.22;;;1.00;99.90;;;;;;5061762;28;20037;-65
2023/04/02 05:36:25;;;;;;;8.48;3.42;;;1.10;99.90;;;;;;5063666;28;20476;-64
2023/04/02 05:38:52;;;;;;;4.55;2.70;;;1.10;99.90;;;;;;5063394;28;20064;-64
2023/04/02 05:41:30;;;;;;;4.28;2.60;;;1.20;99.90;;;;;;5059372;28;20195;-64
2023/04/02 05:44:23;;;;;;;8.10;2.83;;;1.20;99.90;;;;;;5062628;28;20501;-64
2023/04/02 05:46:53;;;;;;;9.48;2.85;;;1.20;99.90;;;;;;5059961;28;20037;-65
2023/04/02 05:49:31;;;;;;;6.90;2.67;;;1.20;99.90;;;;;;5060369;28;20033;-65
2023/04/02 05:52:01;;;;;;;6.93;2.30;;;1.20;99.90;;;;;;5059256;28;20033;-65
2023/04/02 05:54:44;;;;;;;6.72;2.22;;;1.30;99.90;;;;;;5061046;28;20128;-65
2023/04/02 05:57:26;;;;;;;5.15;2.40;;;1.30;99.90;;;;;;5061156;28;20120;-65
2023/04/02 05:59:56;;;;;;;6.47;2.30;;;1.30;99.90;;;;;;5065236;28;20563;-65
2023/04/02 06:02:51;;;;;;;6.45;2.45;;;1.40;99.90;;;;;;5062546;28;20052;-64
2023/04/02 06:05:22;;;;;;;5.68;3.38;;;1.40;99.90;;;;;;5065931;28;20068;-64
2023/04/02 06:08:06;;;;;;;8.75;2.83;;;1.30;99.90;;;;;;5063121;28;20032;-64
2023/04/02 06:10:46;;;;;;;7.78;3.45;;;1.40;99.90;;;;;;5065066;28;20476;-64
2023/04/02 06:13:17;;;;;;;5.80;2.78;;;1.40;99.90;;;;;;5063751;28;20041;-64
2023/04/02 06:15:43;;;;;;;5.45;2.58;;;1.40;99.90;;;;;;5061518;28;20032;-65
2023/04/02 06:18:22;;;;;;;7.07;2.40;;;1.50;99.90;;;;;;5063603;28;20082;-64
2023/04/02 06:20:47;;;;;;;10.27;2.85;;;1.50;99.90;;;;;;5061855;28;20097;-65
2023/04/02 06:23:31;;;;;;;6.55;2.30;;;1.60;99.90;;;;;;5063489;28;20036;-65
2023/04/02 06:26:15;;;;;;;7.15;2.65;;;1.60;99.90;;;;;;5064773;28;20520;-65
2023/04/02 06:29:03;;;;;;;7.25;3.00;;;1.70;99.90;;;;;;5063241;28;20102;-65
2023/04/02 06:31:34;;;;;;;3.65;1.90;;;1.80;99.90;;;;;;5062043;28;20052;-65
2023/04/02 06:34:02;;;;;;;5.55;2.00;;;1.80;99.90;;;;;;5063120;28;20976;-64
2023/04/02 06:36:28;;;;;;;4.13;2.10;;;1.80;99.90;;;;;;5064162;28;20263;-65
2023/04/02 06:39:07;;;;;;;5.70;2.35;;;1.90;99.90;;;;;;5048068;28;20039;-65
2023/04/02 06:41:32;;;;;;;6.20;2.20;;;1.90;99.90;;;;;;5063114;28;20643;-64
2023/04/02 06:44:08;;;;;;;6.75;2.55;;;1.90;99.90;;;;;;5064344;28;20056;-65
2023/04/02 06:46:47;;;;;;;4.85;2.85;;;1.90;99.90;;;;;;5061198;28;20051;-65
2023/04/02 06:49:44;;;;;;;8.23;2.47;;;2.00;99.90;;;;;;5070331;28;20166;-64
2023/04/02 06:52:30;;;;;;;4.40;1.75;;;2.10;99.90;;;;;;5064119;28;20088;-64
2023/04/02 06:54:56;;;;;;;9.30;2.80;;;2.00;99.90;;;;;;5071094;28;20118;-65
2023/04/02 06:57:22;;;;;;;5.18;2.53;;;2.10;99.90;;;;;;5071272;28;20029;-64
2023/04/02 06:59:48;;;;;;;5.38;2.05;;;2.20;99.90;;;;;;5063492;28;20043;-64
2023/04/02 07:02:38;;;;;;;5.10;2.30;;;2.30;99.90;;;;;;5061833;28;20047;-64
2023/04/02 07:05:10;;;;;;;5.85;1.98;;;2.40;99.90;;;;;;5077898;28;20086;-64
2023/04/02 07:07:36;;;;;;;6.22;2.15;;;2.40;99.90;;;;;;5060658;28;20071;-64
2023/04/02 07:10:01;;;;;;;5.28;2.40;;;2.60;99.90;;;;;;5064606;28;20076;-65
2023/04/02 07:12:27;;;;;;;6.40;2.13;;;2.80;99.90;;;;;;5063159;28;20041;-64
2023/04/02 07:14:53;;;;;;;8.10;2.65;;;2.90;99.90;;;;;;5065011;28;20090;-64
2023/04/02 07:17:20;;;;;;;7.95;2.55;;;3.00;99.90;;;;;;5058687;28;20464;-64
2023/04/02 07:19:48;;;;;;;6.65;2.38;;;3.00;99.90;;;;;;5060465;28;20489;-64
2023/04/02 07:22:18;;;;;;;2.85;1.90;;;3.10;99.90;;;;;;5060878;28;20051;-64
2023/04/02 07:24:44;;;;;;;8.02;2.33;;;3.20;99.90;;;;;;5063920;28;20052;-64
2023/04/02 07:27:12;;;;;;;4.88;1.88;;;3.40;99.90;;;;;;5043150;28;20115;-63
2023/04/02 07:29:41;;;;;;;5.90;2.53;;;3.40;99.90;;;;;;5068680;28;20032;-64
2023/04/02 07:32:10;;;;;;;3.75;2.30;;;3.60;99.90;;;;;;5066478;28;20101;-64
2023/04/02 07:34:37;;;;;;;6.00;1.90;;;4.30;99.90;;;;;;5048425;28;20329;-65
2023/04/02 07:37:03;;;;;;;3.38;1.80;;;4.40;99.90;;;;;;5047257;28;20037;-65
2023/04/02 07:39:32;;;;;;;3.50;1.75;;;4.90;99.90;;;;;;5059996;28;20067;-65
2023/04/02 07:42:00;;;;;;;5.20;1.95;;;5.60;99.90;;;;;;5060427;28;20050;-65
2023/04/02 07:44:26;;;;;;;9.65;2.50;;;5.70;99.90;;;;;;5064808;28;20433;-65
2023/04/02 07:46:52;;;;;;;4.32;2.25;;;5.40;99.90;;;;;;5067680;28;20048;-65
2023/04/02 07:49:21;;;;;;;7.15;2.15;;;5.20;99.90;;;;;;5044632;28;20044;-65
2023/04/02 07:51:46;;;;;;;8.90;2.70;;;5.10;99.90;;;;;;5068139;28;20048;-64
2023/04/02 07:54:12;;;;;;;3.50;2.10;;;5.30;99.90;;;;;;5068234;28;20032;-65
2023/04/02 07:56:38;;;;;;;5.00;2.65;;;5.30;99.90;;;;;;5064134;28;20750;-65
2023/04/02 07:59:04;;;;;;;6.45;2.83;;;6.00;99.90;;;;;;5066718;28;20033;-65
2023/04/02 08:01:34;;;;;;;5.43;2.22;;;6.00;99.90;;;;;;5068214;28;20448;-65
2023/04/02 08:04:01;;;;;;;4.22;2.38;;;5.90;99.90;;;;;;5069258;28;20037;-65
2023/04/02 08:06:27;;;;;;;8.30;2.47;;;6.20;99.90;;;;;;5063668;28;20055;-65
2023/04/02 08:08:52;;;;;;;4.78;2.25;;;6.60;99.90;;;;;;5068477;28;20033;-66
2023/04/02 08:11:18;;;;;;;6.10;2.45;;;7.30;99.90;;;;;;5066049;28;20053;-66
2023/04/02 08:13:44;;;;;;;4.40;2.35;;;8.40;99.90;;;;;;5065651;28;20037;-66
2023/04/02 08:16:10;;;;;;;5.60;2.17;;;9.20;99.90;;;;;;5059168;28;20202;-66
2023/04/02 08:18:36;;;;;;;5.75;1.98;;;9.60;99.90;;;;;;5068285;28;20033;-66
2023/04/02 08:21:05;;;;;;;5.43;2.17;;;9.50;99.30;;;;;;5064365;28;20137;-66
2023/04/02 08:23:31;;;;;;;3.88;2.40;;;9.40;98.70;;;;;;5064533;28;20123;-66
2023/04/02 08:25:56;;;;;;;4.38;2.15;;;8.70;98.30;;;;;;5060253;28;21697;-66
2023/04/02 08:28:25;;;;;;;5.65;2.35;;;8.70;99.70;;;;;;5074092;28;20070;-66
2023/04/02 08:30:51;;;;;;;4.60;2.08;;;9.00;99.40;;;;;;5064950;28;20340;-66
2023/04/02 08:33:18;;;;;;;7.30;2.10;;;9.30;98.10;;;;;;5067568;28;20139;-66
2023/04/02 08:35:45;;;;;;;5.65;2.22;;;9.50;98.70;;;;;;5064498;28;20036;-66
2023/04/02 08:38:14;;;;;;;5.20;2.40;;;9.00;97.60;;;;;;5060999;28;20400;-66
2023/04/02 08:40:43;;;;;;;4.53;2.30;;;8.70;98.50;;;;;;5064078;28;20048;-66
2023/04/02 08:43:40;;;;;;;3.28;1.90;;;8.80;99.00;;;;;;5062851;28;20049;-66
2023/04/02 08:46:31;;;;;;;6.55;2.10;;;9.10;99.40;;;;;;5065412;28;20080;-65
2023/04/02 08:49:00;;;;;;;4.05;2.10;;;9.20;98.50;;;;;;5064688;28;20693;-64
2023/04/02 08:51:36;;;;;;;4.45;1.90;;;9.10;98.30;;;;;;5060874;28;20051;-65
2023/04/02 08:54:07;;;;;;;2.83;2.20;;;8.90;98.40;;;;;;5063935;28;20032;-64
2023/04/02 08:56:42;;;;;;;6.03;2.00;;;8.70;99.10;;;;;;5044500;28;20075;-64
2023/04/02 08:59:32;;;;;;;4.75;2.00;;;8.40;98.80;;;;;;5062929;28;20045;-65
2023/04/02 09:02:01;;;;;;;5.82;1.90;;;8.80;99.20;;;;;;5061140;28;20078;-65
2023/04/02 09:04:27;;;;;;;4.47;2.42;;;8.60;99.60;;;;;;5059735;28;20055;-64
2023/04/02 09:06:56;;;;;;;2.90;1.80;;;8.70;99.20;;;;;;5060880;28;20036;-64
2023/04/02 09:09:23;;;;;;;5.72;2.05;;;8.50;98.60;;;;;;5062971;28;20623;-65
2023/04/02 09:11:57;;;;;;;5.40;2.13;;;8.00;98.80;;;;;;5062314;28;20047;-64
2023/04/02 09:14:35;;;;;;;4.68;2.05;;;8.20;99.70;;;;;;5039962;28;20102;-65
2023/04/02 09:17:02;;;;;;;6.28;2.22;;;8.50;99.80;;;;;;5061375;28;20041;-64
2023/04/02 09:19:39;;;;;;;5.93;2.38;;;8.50;99.60;;;;;;5058216;28;20050;-64
2023/04/02 09:22:25;;;;;;;5.65;1.70;;;9.40;99.90;;;;;;5061221;28;20093;-64
2023/04/02 09:24:56;;;;;;;7.78;2.38;;;10.30;99.70;;;;;;5028931;28;20087;-64
2023/04/02 09:27:27;;;;;;;4.35;1.90;;;9.60;97.60;;;;;;5061713;28;20048;-64
2023/04/02 09:30:05;;;;;;;5.20;1.95;;;9.70;98.60;;;;;;5060351;28;20044;-64
2023/04/02 09:32:55;;;;;;;5.43;1.80;;;9.90;98.50;;;;;;5060948;28;20032;-63
2023/04/02 09:35:24;;;;;;;4.28;2.40;;;10.30;98.00;;;;;;5059726;28;20556;-64
2023/04/02 09:38:27;;;;;;;4.78;1.90;;;10.60;96.70;;;;;;5068157;28;20028;-65
2023/04/02 09:40:53;;;;;;;3.70;2.15;;;11.20;96.20;;;;;;5065180;28;20037;-65
2023/04/02 09:43:22;;;;;;;3.60;1.83;;;11.80;96.60;;;;;;5046333;28;20416;-64
2023/04/02 09:45:54;;;;;;;6.25;2.55;;;11.60;95.20;;;;;;5066302;28;20051;-64
2023/04/02 09:48:32;;;;;;;4.03;2.17;;;11.90;95.30;;;;;;5065603;28;20041;-65
2023/04/02 09:51:08;;;;;;;3.75;1.73;;;12.50;95.60;;;;;;5064988;28;21232;-64
2023/04/02 09:53:44;;;;;;;6.00;2.08;;;12.50;93.90;;;;;;5063868;28;20055;-64
2023/04/02 09:56:14;;;;;;;6.72;1.98;;;12.40;93.50;;;;;;5066031;28;20036;-65
2023/04/02 09:58:41;;;;;;;3.33;1.83;;;12.30;92.70;;;;;;5064857;28;20044;-66
2023/04/02 10:01:35;;;;;;;5.47;2.30;;;12.30;93.60;;;;;;5058066;28;20040;-65
2023/04/02 10:04:03;;;;;;;3.85;1.95;;;12.60;93.90;;;;;;5064113;28;20691;-67
2023/04/02 10:06:31;;;;;;;4.97;2.00;;;12.60;93.70;;;;;;5061797;28;20758;-66
2023/04/02 10:08:57;;;;;;;5.05;1.70;;;12.20;92.80;;;;;;5069006;28;20041;-66
2023/04/02 10:11:32;;;;;;;4.88;1.80;;;12.10;93.40;;;;;;5064152;28;20046;-67
2023/04/02 10:14:14;;;;;;;4.88;1.60;;;12.00;94.10;;;;;;5068737;28;20536;-66
2023/04/02 10:16:54;;;;;;;6.15;1.90;;;12.20;93.30;;;;;;5060154;28;20040;-66
2023/04/02 10:19:35;;;;;;;3.45;1.65;;;12.00;93.30;;;;;;5062239;28;20076;-68
2023/04/02 10:22:11;;;;;;;2.45;1.45;;;11.90;93.60;;;;;;5065181;28;20046;-68
2023/04/02 10:24:38;;;;;;;5.18;1.88;;;12.00;93.30;;;;;;5040629;28;20111;-67
2023/04/02 10:27:25;;;;;;;4.13;2.10;;;12.40;93.70;;;;;;5025734;28;20044;-68
2023/04/02 10:30:05;;;;;;;4.55;1.88;;;12.30;92.20;;;;;;5065106;28;20048;-68
2023/04/02 10:32:41;;;;;;;3.63;1.70;;;12.70;92.70;;;;;;5064863;28;20335;-68
2023/04/02 10:35:07;;;;;;;4.35;1.88;;;12.90;91.70;;;;;;5061253;28;20040;-68
2023/04/02 10:37:45;;;;;;;4.95;1.92;;;13.10;91.80;;;;;;5062080;28;20028;-68
2023/04/02 10:40:19;;;;;;;4.38;1.92;;;13.70;91.40;;;;;;5065140;28;20089;-68
2023/04/02 10:42:54;;;;;;;3.75;1.70;;;14.30;91.30;;;;;;5048227;28;20064;-68
2023/04/02 10:45:29;;;;;;;2.28;1.80;;;14.70;89.70;;;;;;5064114;28;20036;-67
2023/04/02 10:48:05;;;;;;;2.90;1.75;;;14.50;89.10;;;;;;5043523;28;20128;-68
2023/04/02 10:50:43;;;;;;;2.58;1.50;;;14.20;87.20;;;;;;5063734;28;20105;-69
2023/04/02 10:53:17;;;;;;;3.55;1.75;;;14.20;86.80;;;;;;5064360;28;20033;-66
2023/04/02 10:55:48;;;;;;;2.13;1.35;;;14.20;88.00;;;;;;5061863;28;20033;-68
2023/04/02 10:58:27;;;;;;;3.72;1.90;;;13.40;86.40;;;;;;5075388;28;20040;-67
2023/04/02 11:01:03;;;;;;;3.20;1.70;;;13.30;88.40;;;;;;5063223;28;20072;-68
2023/04/02 11:03:43;;;;;;;4.88;2.05;;;13.60;89.60;;;;;;5043734;28;20049;-68
2023/04/02 11:06:36;;;;;;;6.57;1.80;;;13.80;85.80;;;;;;5075460;28;20028;-68
2023/04/02 11:09:06;;;;;;;4.03;1.80;;;14.00;86.30;;;;;;5059735;28;20040;-67
2023/04/02 11:11:38;;;;;;;3.60;1.60;;;14.10;85.60;;;;;;5046577;28;20047;-69
2023/04/02 11:14:14;;;;;;;3.08;1.80;;;14.00;87.20;;;;;;5066876;28;20101;-68
2023/04/02 11:16:40;;;;;;;3.28;1.75;;;13.90;85.10;;;;;;5059029;28;20541;-68
2023/04/02 11:19:15;;;;;;;4.95;1.85;;;13.70;84.40;;;;;;5058551;28;20044;-68
2023/04/02 11:21:51;;;;;;;4.47;1.50;;;13.80;89.00;;;;;;5063809;28;20044;-68
2023/04/02 11:24:32;;;;;;;4.90;1.80;;;13.30;87.60;;;;;;5059982;28;20051;-68
2023/04/02 11:27:10;;;;;;;2.65;1.73;;;13.10;89.70;;;;;;5069342;28;20043;-68
2023/04/02 11:29:48;;;;;;;2.50;1.70;;;12.90;89.20;;;;;;5063111;28;20036;-68
2023/04/02 11:32:20;;;;;;;4.40;1.60;;;12.70;87.90;;;;;;5058746;28;20071;-68
2023/04/02 11:34:46;;;;;;;1.65;1.42;;;12.40;90.10;;;;;;5062019;28;20119;-68
2023/04/02 11:37:43;;;;;;;2.13;1.60;;;12.10;89.60;;;;;;5062708;28;20549;-67
2023/04/02 11:40:10;;;;;;;5.28;1.73;;;11.80;90.30;;;;;;5060724;28;20041;-68
2023/04/02 11:42:39;;;;;;;3.67;1.70;;;11.60;90.00;;;;;;5057219;28;20052;-68
2023/04/02 11:45:26;;;;;;;3.47;1.33;;;11.50;90.10;;;;;;5048897;28;20378;-68
2023/04/02 11:47:58;;;;;;;5.22;1.58;;;11.40;90.80;;;;;;5063956;28;20456;-68
2023/04/02 11:50:41;;;;;;;4.55;1.70;;;11.40;90.00;;;;;;5063439;28;20408;-68
2023/04/02 11:53:10;;;;;;;2.72;1.83;;;11.40;90.80;;;;;;5068249;28;20043;-68
2023/04/02 11:56:07;;;;;;;3.60;1.75;;;11.30;91.80;;;;;;5066204;28;20036;-68
2023/04/02 11:58:51;;;;;;;4.20;1.63;;;11.40;91.60;;;;;;5062844;28;20076;-68
2023/04/02 12:01:49;;;;;;;3.45;1.85;;;11.70;92.80;;;;;;5076125;28;20032;-69
2023/04/02 12:04:44;;;;;;;4.15;1.90;;;11.90;92.20;;;;;;5067060;28;20036;-68
2023/04/02 12:07:35;;;;;;;2.88;1.60;;;12.00;92.00;;;;;;5045163;28;20055;-68
2023/04/02 12:10:22;;;;;;;3.85;1.80;;;11.90;91.80;;;;;;5062945;28;20101;-68
2023/04/02 12:12:49;;;;;;;3.92;1.50;;;11.80;91.90;;;;;;5065931;28;20079;-68
2023/04/02 12:15:44;;;;;;;3.42;1.50;;;11.80;92.20;;;;;;5050445;28;20094;-68
2023/04/02 12:18:22;;;;;;;3.13;1.42;;;11.80;91.70;;;;;;5065247;28;20046;-69
2023/04/02 12:20:54;;;;;;;4.10;1.95;;;11.90;91.50;;;;;;5063801;28;20154;-68
2023/04/02 12:23:30;;;;;;;2.00;1.20;;;11.50;90.10;;;;;;5064786;28;20595;-68
2023/04/02 12:26:28;;;;;;;4.93;1.45;;;11.30;90.30;;;;;;5068014;28;20037;-68
2023/04/02 12:29:13;;;;;;;3.17;1.40;;;11.50;92.60;;;;;;5060371;28;20456;-68
2023/04/02 12:31:46;;;;;;;3.90;1.65;;;11.60;91.60;;;;;;5066065;28;20142;-68
2023/04/02 12:34:17;;;;;;;2.30;1.60;;;11.60;92.60;;;;;;5068625;28;20037;-68
2023/04/02 12:36:56;;;;;;;2.83;1.48;;;12.00;92.60;;;;;;5050389;28;20125;-68
2023/04/02 12:39:22;;;;;;;2.20;1.55;;;11.90;91.60;;;;;;5047855;28;20039;-68
2023/04/02 12:41:48;;;;;;;4.93;1.73;;;12.00;91.30;;;;;;5059915;28;20497;-68
2023/04/02 12:44:22;;;;;;;4.45;1.60;;;12.10;91.60;;;;;;5067008;28;20063;-69
2023/04/02 12:46:49;;;;;;;2.67;1.30;;;12.20;91.70;;;;;;5061422;28;20074;-68
2023/04/02 12:49:41;;;;;;;3.13;1.48;;;12.30;91.60;;;;;;5065829;28;20032;-69
2023/04/02 12:52:16;;;;;;;2.90;1.50;;;12.30;90.30;;;;;;5049378;28;20528;-69
2023/04/02 12:54:49;;;;;;;2.25;1.38;;;12.50;91.10;;;;;;5064105;28;20069;-68
2023/04/02 12:57:30;;;;;;;5.20;2.00;;;12.50;90.40;;;;;;5066165;28;20328;-69
2023/04/02 13:00:04;;;;;;;2.85;1.55;;;12.50;90.20;;;;;;5060638;28;20072;-68
2023/04/02 13:02:41;;;;;;;3.20;1.52;;;12.60;90.40;;;;;;5066349;28;20116;-68
2023/04/02 13:05:07;;;;;;;2.40;1.50;;;12.50;89.80;;;;;;5066403;28;20036;-68
2023/04/02 13:07:33;;;;;;;1.92;1.30;;;12.50;90.40;;;;;;5065177;28;20074;-68
2023/04/02 13:10:22;;;;;;;2.78;1.13;;;12.60;89.10;;;;;;5066823;28;20462;-68
2023/04/02 13:12:57;;;;;;;2.75;1.50;;;12.50;87.70;;;;;;5070119;28;20037;-69
2023/04/02 13:15:30;;;;;;;3.90;1.52;;;12.70;90.20;;;;;;5053766;28;20033;-68
2023/04/02 13:18:16;;;;;;;3.72;1.35;;;12.60;90.00;;;;;;5068867;28;20079;-68
2023/04/02 13:20:53;;;;;;;2.20;1.17;;;12.80;89.00;;;;;;5068521;28;20225;-69
2023/04/02 13:23:45;;;;;;;3.08;1.58;;;12.90;90.40;;;;;;5069977;28;20032;-68
2023/04/02 13:26:26;;;;;;;3.38;1.52;;;13.00;89.90;;;;;;5065735;28;20045;-68
2023/04/02 13:29:03;;;;;;;3.88;1.50;;;13.10;89.40;;;;;;5071100;28;20033;-69
2023/04/02 13:31:31;;;;;;;4.13;1.73;;;13.40;90.00;;;;;;5051773;28;20049;-69
2023/04/02 13:33:57;;;;;;;4.82;1.75;;;13.00;90.10;;;;;;5064319;28;20041;-69